»·PEaware :: CFC412 KVCV-L52

CFC412 :: KVCV-L52

FLIGHT INFORMATION

Flight Status: Arrived
Operator:
Canadian Armed Forces
More flights by this operator :: More flights under this callsign
Pilot: Anonymous 24180 (24180)
Aircraft: EMBRAER PHENOM 300
(E55P)
More flights by this aircraft type
Origin: KVCV Socal Logistics
United States
Destination: L52 Oceano Co
United States
More flights between these airports :: More routes between these airports
Route: ZOREN V386 PMD V12 GVO V27 ORCUT
File this flight plan on PilotEdge
Remarks: RMK / SIMBRIEF
Altitude:
(Current/Filed)
16,000ft
Speed:
(Current/Filed)
392kts
Departed: 31-May-21 12:03 PM
Arrived: 31-May-21 12:41 PM
Distance/Time
Traveled:
163nm/0:38
Distance/Time
To Go:
Arrived

Flight Plot

Page will automatically refresh every two minutes.

Flight plan parsing failed; only flown route is shown


Map Options




Map Legend


Flown Route
Filed Route
Departure Airport
Arrival Airport
Navaid (VOR, NDB)
Fix

Horizontal Profiles

Position Reports

Time Latitude Longitude Heading Altitude Ground
Speed
31-May-21 11:34 34.588333 -117.376341 0 2876ft 0kts
31-May-21 11:35 34.588333 -117.376341 313 2876ft 0kts
31-May-21 11:36 34.588333 -117.376341 313 2876ft 0kts
31-May-21 11:37 34.588333 -117.376341 313 2876ft 0kts
31-May-21 11:38 34.588333 -117.376341 313 2876ft 0kts
31-May-21 11:39 34.588333 -117.376341 313 2876ft 0kts
31-May-21 11:40 34.588333 -117.376341 313 2876ft 0kts
31-May-21 11:41 34.588333 -117.376341 313 2876ft 0kts
31-May-21 11:42 34.588333 -117.376341 313 2876ft 0kts
31-May-21 11:43 34.588333 -117.376341 313 2876ft 0kts
31-May-21 11:44 34.588333 -117.376341 313 2876ft 0kts
31-May-21 11:45 34.588333 -117.376341 313 2876ft 0kts
31-May-21 11:46 34.588333 -117.376341 313 2876ft 0kts
31-May-21 11:47 34.588333 -117.376341 313 2876ft 0kts
31-May-21 11:48 34.588333 -117.376341 313 2876ft 0kts
31-May-21 11:49 34.588333 -117.376341 313 2876ft 0kts
31-May-21 11:50 34.588333 -117.376341 313 2876ft 0kts
31-May-21 11:51 34.588333 -117.376341 313 2876ft 0kts
31-May-21 11:52 34.588333 -117.376341 313 2876ft 0kts
31-May-21 11:53 34.588333 -117.376341 313 2876ft 0kts
31-May-21 11:54 34.588333 -117.376341 313 2876ft 0kts
31-May-21 11:55 34.588333 -117.376341 313 2876ft 0kts
31-May-21 11:56 34.588333 -117.376341 313 2876ft 0kts
31-May-21 11:57 34.588487 -117.376522 322 2875ft 6kts
31-May-21 11:58 34.593043 -117.372579 52 2864ft 27kts
31-May-21 11:59 34.593942 -117.367826 11 2860ft 12kts
31-May-21 12:00 34.599111 -117.366605 10 2849ft 0kts
31-May-21 12:01 34.599416 -117.366537 10 2849ft 10kts
31-May-21 12:02 34.589416 -117.379613 224 3122ft 167kts
31-May-21 12:03 34.574348 -117.440356 262 5988ft 217kts
31-May-21 12:04 34.565078 -117.509751 262 9146ft 210kts
31-May-21 12:05 34.554882 -117.586938 262 12072ft 253kts
31-May-21 12:06 34.541854 -117.688745 261 12994ft 348kts
31-May-21 12:07 34.565894 -117.793070 302 13682ft 326kts
31-May-21 12:08 34.608858 -117.893331 280 15962ft 383kts
31-May-21 12:09 34.625588 -118.023727 281 15977ft 390kts
31-May-21 12:10 34.644033 -118.150906 251 15960ft 394kts
31-May-21 12:11 34.616334 -118.276563 265 15969ft 392kts
31-May-21 12:12 34.608898 -118.408985 269 15973ft 392kts
31-May-21 12:13 34.602686 -118.540501 267 15992ft 389kts
31-May-21 12:14 34.595084 -118.670830 266 15996ft 387kts
31-May-21 12:15 34.585474 -118.801477 265 15989ft 385kts
31-May-21 12:16 34.575719 -118.930374 265 15977ft 384kts
31-May-21 12:17 34.565839 -119.059049 264 15990ft 382kts
31-May-21 12:18 34.555782 -119.188009 264 15996ft 381kts
31-May-21 12:19 34.545672 -119.316146 264 16001ft 380kts
31-May-21 12:20 34.547823 -119.441887 283 15997ft 377kts
31-May-21 12:21 34.577826 -119.563458 288 16011ft 376kts
31-May-21 12:22 34.608438 -119.685037 288 16008ft 367kts
31-May-21 12:23 34.641632 -119.788675 299 14210ft 318kts
31-May-21 12:24 34.685424 -119.878184 304 11741ft 303kts
31-May-21 12:25 34.732259 -119.961154 304 9241ft 294kts
31-May-21 12:26 34.775088 -120.037235 304 8984ft 275kts
31-May-21 12:27 34.820017 -120.117209 304 8986ft 287kts
31-May-21 12:28 34.864788 -120.197347 305 7965ft 280kts
31-May-21 12:29 34.908798 -120.275777 305 6800ft 261kts
31-May-21 12:30 34.948347 -120.346496 302 5453ft 248kts
31-May-21 12:31 34.982261 -120.407437 302 5275ft 193kts
31-May-21 12:32 35.012114 -120.461135 303 4999ft 190kts
31-May-21 12:33 35.038322 -120.508323 303 4408ft 169kts
31-May-21 12:34 35.061304 -120.549709 302 3587ft 136kts
31-May-21 12:36 35.085322 -120.588553 290 1420ft 147kts
31-May-21 12:37 35.106171 -120.630442 294 1213ft 125kts
31-May-21 12:38 35.081311 -120.633395 123 1536ft 135kts
31-May-21 12:39 35.067443 -120.594012 63 1350ft 132kts
31-May-21 12:40 35.094557 -120.609224 301 400ft 135kts
31-May-21 12:41 35.106209 -120.629343 328 18ft 2kts

Navigation Log

Ident Type
Flight plan parsing failed, navigation log unavailable